Time;durP1;ratioP1;P1;durP2;ratioP2;P2;SDS_P1;SDS_P2;PMS_P1;PMS_P2;Temp;Humidity;BMP_temperature;BMP_pressure;BME280_temperature;BME280_humidity;BME280_pressure;Samples;Min_cycle;Max_cycle;Signal;HPM_P1;HPM_P2
2021/01/19 00:01:18;;;;;;;19.92;6.30;;;;;;;7.84;68.16;101599.53;5053763;28;20501;-82
2021/01/19 00:03:45;;;;;;;17.20;5.60;;;;;;;7.57;67.85;101610.00;5053685;28;20029;-80
2021/01/19 00:06:12;;;;;;;18.90;5.30;;;;;;;7.54;67.81;101601.19;5054137;28;20021;-81
2021/01/19 00:08:39;;;;;;;15.93;5.22;;;;;;;7.70;67.66;101592.50;5053953;28;20048;-88
2021/01/19 00:11:05;;;;;;;11.38;5.30;;;;;;;7.82;66.83;101596.03;5053349;28;20087;-82
2021/01/19 00:13:32;;;;;;;16.25;4.97;;;;;;;7.77;67.11;101586.34;5052939;28;20468;-81
2021/01/19 00:15:59;;;;;;;17.65;5.00;;;;;;;7.96;66.52;101569.69;5052971;28;20395;-87
2021/01/19 00:18:25;;;;;;;17.75;5.45;;;;;;;7.59;66.97;101588.94;5053301;28;20475;-81
2021/01/19 00:20:52;;;;;;;12.43;4.88;;;;;;;7.62;67.12;101570.47;5052905;28;20040;-85
2021/01/19 00:23:19;;;;;;;14.00;4.85;;;;;;;7.60;66.85;101572.19;5053263;28;20021;-87
2021/01/19 00:25:45;;;;;;;8.70;3.83;;;;;;;7.77;66.46;101559.94;5053513;28;20041;-81
2021/01/19 00:28:13;;;;;;;12.25;5.25;;;;;;;7.76;66.44;101555.59;5050907;28;20456;-83
2021/01/19 00:30:41;;;;;;;24.98;5.47;;;;;;;7.61;66.97;101560.78;5048595;28;20033;-81
2021/01/19 00:33:08;;;;;;;10.32;4.30;;;;;;;7.62;66.84;101544.09;5053400;28;20048;-81
2021/01/19 00:35:36;;;;;;;13.93;3.95;;;;;;;7.61;66.68;101540.59;5047447;28;20033;-84
2021/01/19 00:38:03;;;;;;;18.73;4.53;;;;;;;7.73;66.20;101537.09;5046683;28;20475;-81
2021/01/19 00:40:30;;;;;;;14.25;4.03;;;;;;;7.78;66.15;101526.56;5045894;28;20033;-81
2021/01/19 00:42:58;;;;;;;11.43;3.85;;;;;;;7.56;66.64;101520.34;5047195;28;20082;-82
2021/01/19 00:45:25;;;;;;;12.30;4.15;;;;;;;7.73;66.29;101513.34;5048535;28;20021;-81
2021/01/19 00:47:51;;;;;;;9.77;3.92;;;;;;;7.45;66.61;101513.28;5045956;28;20080;-84
2021/01/19 00:50:18;;;;;;;16.35;3.90;;;;;;;7.55;66.87;101506.28;5044495;28;20025;-85
2021/01/19 00:52:44;;;;;;;16.92;3.35;;;;;;;7.49;66.64;101492.16;5046146;28;20486;-82
2021/01/19 00:55:14;;;;;;;11.45;4.13;;;;;;;7.61;66.34;101490.47;5047647;28;20025;-86
2021/01/19 00:57:40;;;;;;;12.80;4.30;;;;;;;7.64;66.83;101479.06;5044184;28;20024;-81
2021/01/19 01:00:08;;;;;;;11.75;3.72;;;;;;;7.75;66.48;101473.78;5044585;28;20029;-81
2021/01/19 01:02:37;;;;;;;12.32;4.07;;;;;;;7.72;66.27;101465.88;5048486;28;20231;-81
2021/01/19 01:05:06;;;;;;;10.65;3.58;;;;;;;7.72;66.30;101452.69;5051460;28;20388;-81
2021/01/19 01:07:36;;;;;;;10.93;3.83;;;;;;;7.82;66.13;101448.31;5052748;28;20107;-81
2021/01/19 01:10:05;;;;;;;10.35;3.10;;;;;;;7.58;66.32;101455.28;5050308;28;20060;-81
2021/01/19 01:12:32;;;;;;;15.48;4.18;;;;;;;7.69;66.12;101434.19;5052563;28;20063;-81
2021/01/19 01:14:59;;;;;;;14.73;3.80;;;;;;;7.50;66.73;101443.84;5053124;28;20023;-80
2021/01/19 01:17:25;;;;;;;19.02;3.80;;;;;;;7.84;66.33;101438.59;5052696;28;20467;-85
2021/01/19 01:19:52;;;;;;;13.95;3.17;;;;;;;7.68;66.43;101419.28;5052771;28;20025;-81
2021/01/19 01:22:21;;;;;;;11.70;3.80;;;;;;;7.75;66.54;101408.72;5052609;28;20031;-81
2021/01/19 01:24:47;;;;;;;8.18;3.50;;;;;;;7.68;67.52;101404.31;5052547;28;20031;-81
2021/01/19 01:27:14;;;;;;;17.08;3.38;;;;;;;7.76;67.28;101405.22;5052615;28;20472;-81
2021/01/19 01:29:40;;;;;;;14.23;3.80;;;;;;;7.58;67.48;101398.16;5049423;28;20036;-81
2021/01/19 01:32:07;;;;;;;14.23;3.58;;;;;;;7.61;67.72;101398.16;5052370;28;20111;-81
2021/01/19 01:34:33;;;;;;;10.07;3.95;;;;;;;7.75;66.89;101384.09;5049788;28;20032;-82
2021/01/19 01:37:00;;;;;;;9.32;3.75;;;;;;;7.67;66.94;101375.31;5052519;28;20028;-82
2021/01/19 01:39:26;;;;;;;14.38;3.90;;;;;;;7.78;66.80;101374.41;5052618;28;20025;-81
2021/01/19 01:41:53;;;;;;;9.95;3.78;;;;;;;7.65;67.35;101364.78;5052310;28;20472;-81
2021/01/19 01:44:19;;;;;;;13.10;3.70;;;;;;;7.62;68.27;101372.66;5051796;28;20112;-81
2021/01/19 01:46:48;;;;;;;16.58;4.05;;;;;;;7.38;69.35;101349.81;5049144;28;20033;-84
2021/01/19 01:49:15;;;;;;;9.85;3.63;;;;;;;7.54;68.82;101343.66;5049745;28;20033;-81
2021/01/19 01:51:41;;;;;;;11.38;3.45;;;;;;;7.69;68.30;101331.34;5052187;28;20095;-80
2021/01/19 01:54:08;;;;;;;14.18;3.88;;;;;;;7.22;69.35;101340.97;5052042;28;20142;-80
2021/01/19 01:56:35;;;;;;;10.70;3.35;;;;;;;7.51;68.55;101321.69;5049828;28;20500;-81
2021/01/19 01:59:01;;;;;;;16.48;4.15;;;;;;;7.51;68.88;101316.41;5052437;28;20379;-81
2021/01/19 02:01:28;;;;;;;17.30;4.40;;;;;;;7.38;69.52;101311.13;5052106;28;20527;-83
2021/01/19 02:03:55;;;;;;;10.63;3.58;;;;;;;7.54;69.04;101316.38;5049477;28;20036;-82
2021/01/19 02:06:21;;;;;;;12.35;3.83;;;;;;;7.44;69.31;101305.84;5052042;28;20037;-81
2021/01/19 02:14:25;;;;;;;20.63;4.65;;;;;;;7.36;69.60;101278.59;5059999;27;20916;-87
2021/01/19 02:17:31;;;;;;;17.73;5.32;;;;;;;7.41;69.95;101290.06;5055410;28;20030;-81
2021/01/19 02:23:08;;;;;;;17.10;4.07;;;;;;;7.22;70.56;101259.28;5063217;27;812913;-82
2021/01/19 02:28:35;;;;;;;19.52;5.40;;;;;;;7.08;70.63;101244.31;5081639;27;20386;-82
2021/01/19 02:37:09;;;;;;;17.17;5.05;;;;;;;7.09;71.21;101219.75;5081126;28;20397;-80
2021/01/19 02:39:46;;;;;;;16.88;5.72;;;;;;;6.82;71.92;101217.06;5066348;28;20111;-80
2021/01/19 02:42:19;;;;;;;18.95;6.22;;;;;;;6.95;71.60;101213.56;5067318;28;20464;-81
2021/01/19 02:44:47;;;;;;;13.57;4.82;;;;;;;6.72;72.37;101203.88;5063354;28;20025;-79
2021/01/19 02:47:14;;;;;;;14.52;5.70;;;;;;;7.05;71.76;101203.94;5057922;28;20094;-79
2021/01/19 02:49:43;;;;;;;20.17;6.45;;;;;;;7.07;71.52;101195.13;5060612;28;20116;-82
2021/01/19 02:52:12;;;;;;;14.60;6.47;;;;;;;6.84;72.71;101191.63;5058097;28;20047;-80
2021/01/19 02:54:40;;;;;;;18.92;6.93;;;;;;;6.83;72.60;101189.84;5057014;28;20048;-80
2021/01/19 02:57:26;;;;;;;17.52;7.68;;;;;;;6.89;72.53;101172.31;5059066;28;20079;-81
2021/01/19 03:02:49;;;;;;;21.25;7.90;;;;;;;7.02;72.09;101152.09;5081213;27;20918;-88
2021/01/19 03:05:19;;;;;;;16.10;7.55;;;;;;;6.92;72.87;101158.25;5050601;28;20083;-78
2021/01/19 03:07:48;;;;;;;20.23;8.63;;;;;;;6.91;73.08;101140.69;5047506;28;20026;-79
2021/01/19 03:10:17;;;;;;;20.30;8.77;;;;;;;6.91;73.42;101135.44;5044735;28;20104;-83
2021/01/19 03:12:46;;;;;;;19.75;9.18;;;;;;;6.82;73.87;101136.31;5045616;28;20033;-78
2021/01/19 03:15:15;;;;;;;23.40;9.57;;;;;;;6.68;74.14;101123.16;5046922;28;20025;-85
2021/01/19 03:17:43;;;;;;;20.33;10.45;;;;;;;6.82;73.93;101109.97;5047203;28;20037;-86
2021/01/19 03:20:13;;;;;;;16.13;9.45;;;;;;;6.77;74.03;101117.88;5043249;28;20103;-81
2021/01/19 03:22:43;;;;;;;18.67;9.68;;;;;;;6.92;73.79;101105.59;5045516;28;20045;-80
2021/01/19 03:25:12;;;;;;;17.00;10.18;;;;;;;7.10;73.27;101092.38;5044691;28;20069;-79
2021/01/19 03:27:47;;;;;;;19.27;11.02;;;;;;;7.04;73.56;101092.41;5047351;28;20057;-80
2021/01/19 03:30:14;;;;;;;18.05;10.38;;;;;;;6.92;73.72;101097.69;5046763;28;20120;-84
2021/01/19 03:32:41;;;;;;;22.40;11.23;;;;;;;7.13;73.29;101094.13;5045252;28;20048;-83
2021/01/19 03:35:08;;;;;;;18.60;11.73;;;;;;;6.95;73.78;101079.22;5045532;28;20026;-80
2021/01/19 03:37:35;;;;;;;19.80;11.60;;;;;;;6.85;74.39;101066.94;5046665;28;20047;-83
2021/01/19 03:40:03;;;;;;;22.70;12.30;;;;;;;7.05;73.51;101061.66;5043800;28;20063;-82
2021/01/19 03:42:30;;;;;;;22.35;12.75;;;;;;;7.02;73.76;101054.63;5048525;28;20551;-85
2021/01/19 03:44:56;;;;;;;20.45;12.30;;;;;;;6.76;74.59;101062.56;5046314;28;20070;-84
2021/01/19 03:47:23;;;;;;;21.48;12.98;;;;;;;7.05;73.95;101041.47;5043082;28;20426;-81
2021/01/19 03:49:49;;;;;;;19.10;12.75;;;;;;;6.98;74.11;101052.88;5046184;28;20052;-83
2021/01/19 03:52:16;;;;;;;20.30;12.57;;;;;;;6.97;74.07;101041.47;5046317;28;20078;-81
2021/01/19 03:54:42;;;;;;;18.63;11.18;;;;;;;7.07;73.94;101047.59;5046107;28;20474;-89
2021/01/19 03:57:09;;;;;;;23.60;12.23;;;;;;;6.97;74.38;101035.31;5044291;28;20030;-87
2021/01/19 03:59:35;;;;;;;22.45;13.25;;;;;;;7.02;74.09;101032.69;5046741;28;20029;-81
2021/01/19 04:02:01;;;;;;;20.88;13.45;;;;;;;7.09;74.23;101035.28;5046211;28;20533;-81
2021/01/19 04:04:28;;;;;;;20.90;12.82;;;;;;;6.91;74.68;101024.81;5046290;28;20025;-82
2021/01/19 04:06:54;;;;;;;19.17;13.23;;;;;;;6.91;74.65;101009.00;5046161;28;20029;-80
2021/01/19 04:09:20;;;;;;;24.95;13.23;;;;;;;6.99;74.82;101006.34;5046408;28;20029;-80
2021/01/19 04:11:47;;;;;;;23.90;14.07;;;;;;;7.14;74.48;100995.78;5046151;28;20029;-83
2021/01/19 04:14:13;;;;;;;19.42;13.07;;;;;;;7.06;74.65;101008.94;5034364;28;20416;-80
2021/01/19 04:16:40;;;;;;;18.75;13.32;;;;;;;7.07;74.44;100986.13;5034143;28;20492;-80
2021/01/19 04:19:06;;;;;;;18.55;12.77;;;;;;;6.94;75.11;100980.00;5028702;28;20076;-80
2021/01/19 04:21:33;;;;;;;19.35;12.55;;;;;;;6.90;75.35;100980.91;5032251;28;20492;-80
2021/01/19 04:24:00;;;;;;;19.75;13.40;;;;;;;7.02;74.71;100958.94;5032521;28;20025;-81
2021/01/19 04:26:26;;;;;;;24.83;13.45;;;;;;;7.03;75.03;100952.75;5030251;28;20071;-81
2021/01/19 04:28:53;;;;;;;24.08;13.43;;;;;;;7.12;74.88;100944.81;5030912;28;20029;-79
2021/01/19 04:31:19;;;;;;;21.88;13.02;;;;;;;7.23;74.37;100937.75;5032306;28;20028;-80
2021/01/19 04:33:45;;;;;;;20.92;12.30;;;;;;;7.15;74.72;100931.63;5030298;28;20057;-79
2021/01/19 04:36:12;;;;;;;20.35;13.27;;;;;;;7.13;74.45;100931.63;5032625;28;20080;-85
2021/01/19 04:38:38;;;;;;;20.05;12.98;;;;;;;7.09;75.02;100929.00;5032396;28;20112;-79
2021/01/19 04:41:08;;;;;;;20.20;12.93;;;;;;;7.10;75.49;100921.13;5029609;28;20053;-81
2021/01/19 04:43:35;;;;;;;18.88;12.20;;;;;;;7.01;75.56;100917.66;5032631;28;20112;-83
2021/01/19 04:46:03;;;;;;;16.27;12.40;;;;;;;7.19;75.17;100906.13;5033016;28;20025;-81
2021/01/19 04:48:31;;;;;;;17.23;12.45;;;;;;;7.22;75.03;100903.50;5032265;28;20041;-81
2021/01/19 04:50:58;;;;;;;16.45;12.18;;;;;;;7.15;75.18;100901.78;5029884;28;20033;-80
2021/01/19 04:53:28;;;;;;;17.77;12.40;;;;;;;7.11;75.81;100895.63;5032203;28;20038;-81
2021/01/19 04:55:58;;;;;;;23.75;13.88;;;;;;;7.07;75.58;100896.56;5023715;28;20068;-81
2021/01/19 04:58:31;;;;;;;22.98;12.68;;;;;;;7.17;75.67;100894.75;5031054;28;20094;-80
2021/01/19 05:01:07;;;;;;;25.33;13.27;;;;;;;7.27;75.54;100884.13;5019204;28;20030;-81
2021/01/19 05:03:50;;;;;;;20.00;11.95;;;;;;;7.16;75.48;100877.19;5025895;28;20037;-81
2021/01/19 05:06:41;;;;;;;15.55;12.15;;;;;;;6.96;76.27;100870.25;5030146;28;20052;-81
2021/01/19 05:09:10;;;;;;;19.95;11.38;;;;;;;6.96;76.84;100864.97;5020329;28;20523;-83
2021/01/19 05:11:51;;;;;;;21.90;12.40;;;;;;;7.06;76.37;100861.41;5026723;28;20034;-79
2021/01/19 05:14:19;;;;;;;19.98;12.50;;;;;;;7.10;76.20;100860.53;5030179;28;20100;-82
2021/01/19 05:16:49;;;;;;;20.85;11.73;;;;;;;7.15;75.98;100847.31;5029858;28;20037;-87
2021/01/19 05:19:20;;;;;;;18.50;12.13;;;;;;;7.13;76.20;100831.50;5031247;28;20032;-86
2021/01/19 05:21:52;;;;;;;18.00;12.63;;;;;;;7.34;75.31;100819.09;5033938;28;20041;-83
2021/01/19 05:24:18;;;;;;;19.73;12.45;;;;;;;7.20;76.36;100815.66;5031607;28;20038;-84
2021/01/19 05:26:45;;;;;;;19.98;11.88;;;;;;;7.41;75.39;100794.44;5033018;28;20036;-88
2021/01/19 05:29:12;;;;;;;20.10;11.85;;;;;;;7.45;74.92;100793.53;5031447;28;20476;-81
2021/01/19 05:31:39;;;;;;;19.90;12.68;;;;;;;7.43;75.13;100787.38;5030021;28;20388;-83
2021/01/19 05:34:09;;;;;;;22.40;13.55;;;;;;;7.66;74.61;100788.06;5031286;28;20037;-81
2021/01/19 05:39:23;;;;;;;23.55;13.00;;;;;;;7.77;74.62;100757.19;5059437;28;20468;-84
2021/01/19 05:41:51;;;;;;;20.48;12.52;;;;;;;7.62;74.72;100742.41;5043335;28;20037;-83
2021/01/19 05:47:06;;;;;;;16.35;11.27;;;;;;;7.40;75.92;100723.25;5086366;28;20157;-82
2021/01/19 05:52:30;;;;;;;18.98;11.52;;;;;;;7.60;75.27;100691.44;5141271;27;20884;-81
2021/01/19 05:54:58;;;;;;;17.38;11.23;;;;;;;7.61;75.33;100690.53;5065480;28;20032;-80
2021/01/19 05:57:25;;;;;;;17.60;10.25;;;;;;;7.60;75.18;100676.50;5067149;28;20031;-89
2021/01/19 06:02:41;;;;;;;16.05;9.68;;;;;;;7.47;76.34;100645.00;5070896;28;20365;-80
2021/01/19 06:05:11;;;;;;;15.95;9.13;;;;;;;7.53;76.30;100637.03;5056152;28;20437;-82
2021/01/19 06:07:38;;;;;;;12.02;9.23;;;;;;;7.67;75.93;100664.13;5060206;28;20115;-81
2021/01/19 06:10:11;;;;;;;16.98;8.73;;;;;;;7.50;76.14;100642.31;5068547;28;20025;-81
2021/01/19 06:12:37;;;;;;;15.32;9.18;;;;;;;7.54;76.37;100636.13;5068716;28;20029;-90
2021/01/19 06:15:05;;;;;;;18.38;9.32;;;;;;;7.77;75.72;100628.81;5058653;28;20025;-80
2021/01/19 06:17:31;;;;;;;15.00;8.38;;;;;;;7.54;76.22;100629.09;5050522;28;20033;-89
2021/01/19 06:19:59;;;;;;;15.95;8.95;;;;;;;7.90;75.06;100612.84;5050818;28;20037;-88
2021/01/19 06:22:27;;;;;;;16.38;8.52;;;;;;;7.75;75.33;100629.72;5050272;28;20036;-80
2021/01/19 06:24:56;;;;;;;10.30;6.88;;;;;;;7.77;75.72;100634.09;5057514;28;20033;-88
2021/01/19 06:32:52;;;;;;;7.97;6.05;;;;;;;7.49;76.73;100601.94;5086742;28;20976;-90
2021/01/19 06:35:21;;;;;;;9.80;6.32;;;;;;;8.00;75.53;100567.00;5055973;28;20488;-81
2021/01/19 06:37:49;;;;;;;10.00;5.80;;;;;;;7.88;76.00;100570.66;5049347;28;20061;-88
2021/01/19 06:40:18;;;;;;;7.95;5.18;;;;;;;7.87;75.26;100560.16;5049503;28;20029;-81
2021/01/19 06:42:56;;;;;;;12.77;7.00;;;;;;;8.00;75.82;100551.19;5049749;28;20022;-83
2021/01/19 06:45:23;;;;;;;7.53;5.47;;;;;;;7.65;76.36;100576.25;5049172;28;20037;-85
2021/01/19 06:47:52;;;;;;;9.70;6.47;;;;;;;7.77;76.23;100549.69;5049594;28;20033;-85
2021/01/19 06:50:20;;;;;;;14.35;6.30;;;;;;;7.85;76.53;100546.09;5048601;28;20033;-87
2021/01/19 06:59:06;;;;;;;8.52;4.97;;;;;;;7.55;77.38;100557.03;5094669;27;20389;-86
2021/01/19 07:01:38;;;;;;;8.43;5.30;;;;;;;7.87;76.94;100532.00;5101689;28;20484;-83
2021/01/19 07:04:25;;;;;;;9.23;5.22;;;;;;;8.12;75.59;100517.59;5095381;28;20095;-82
2021/01/19 07:07:27;;;;;;;9.82;5.65;;;;;;;8.03;75.54;100519.47;5080837;28;20028;-85
2021/01/19 07:10:12;;;;;;;10.82;6.00;;;;;;;7.99;76.23;100516.88;5078843;28;20059;-82
2021/01/19 07:15:42;;;;;;;9.38;5.28;;;;;;;7.95;76.86;100502.88;5041070;23;20601;-78
2021/01/19 07:18:48;;;;;;;10.20;5.18;;;;;;;8.06;76.76;100489.50;4986756;28;20065;-78
2021/01/19 07:21:17;;;;;;;7.50;4.75;;;;;;;8.00;76.55;100477.31;4987360;28;20046;-78
2021/01/19 07:26:37;;;;;;;6.50;4.53;;;;;;;8.24;76.32;100488.38;5069873;28;20363;-78
2021/01/19 07:29:04;;;;;;;8.20;5.15;;;;;;;8.22;75.90;100493.69;5069607;28;20091;-78
2021/01/19 07:31:30;;;;;;;8.70;4.80;;;;;;;8.08;76.61;100474.53;5072090;28;20021;-78
2021/01/19 07:33:58;;;;;;;11.38;5.93;;;;;;;8.19;76.47;100492.84;5068809;28;20024;-79
2021/01/19 07:36:27;;;;;;;11.48;6.13;;;;;;;8.29;76.19;100459.25;5066749;28;20041;-79
2021/01/19 07:38:53;;;;;;;8.60;4.93;;;;;;;8.01;77.29;100484.34;5057277;28;20111;-79
2021/01/19 07:41:36;;;;;;;15.48;6.25;;;;;;;8.20;76.98;100495.47;5059384;28;20112;-80
2021/01/19 07:44:03;;;;;;;687.97;297.70;;;;;;;8.27;76.43;100485.66;5049944;28;20039;-85
2021/01/19 07:46:30;;;;;;;18.35;8.95;;;;;;;8.26;76.69;100476.00;5049429;28;20104;-86
2021/01/19 07:49:07;;;;;;;12.85;6.50;;;;;;;8.33;76.58;100496.13;5050107;28;20027;-79
2021/01/19 07:51:41;;;;;;;10.63;6.18;;;;;;;8.57;76.55;100491.34;5060053;28;20024;-80
2021/01/19 07:54:08;;;;;;;13.82;5.80;;;;;;;8.35;76.63;100483.78;5052457;28;20030;-80
2021/01/19 07:56:35;;;;;;;10.18;5.63;;;;;;;8.55;76.42;100493.19;5046160;28;20135;-79
2021/01/19 07:59:01;;;;;;;9.23;5.03;;;;;;;8.31;77.13;100495.31;5048783;28;20032;-79
2021/01/19 08:01:34;;;;;;;12.75;6.15;;;;;;;8.38;77.17;100493.41;5049558;28;20056;-79
2021/01/19 08:04:15;;;;;;;11.02;5.30;;;;;;;8.56;76.94;100482.56;5048119;28;20037;-79
2021/01/19 08:06:42;;;;;;;10.45;5.15;;;;;;;8.79;76.54;100498.91;5048610;28;20025;-79
2021/01/19 08:12:05;;;;;;;10.68;5.80;;;;;;;8.36;78.53;100501.38;5070960;28;20364;-78
2021/01/19 08:14:36;;;;;;;6.32;4.05;;;;;;;8.70;77.00;100484.13;5055900;28;20033;-84
2021/01/19 08:17:04;;;;;;;7.25;5.13;;;;;;;8.70;76.89;100474.41;5055931;28;20026;-79
2021/01/19 08:19:36;;;;;;;88.38;52.75;;;;;;;8.81;77.13;100481.25;5039262;28;20540;-79
2021/01/19 08:22:03;;;;;;;14.18;8.68;;;;;;;8.81;77.35;100473.31;5040211;28;20026;-79
2021/01/19 08:24:29;;;;;;;9.32;5.32;;;;;;;8.96;76.80;100477.44;5058134;28;20033;-80
2021/01/19 08:26:56;;;;;;;7.65;5.00;;;;;;;9.02;76.12;100475.59;5044015;28;20047;-80
2021/01/19 08:29:24;;;;;;;11.20;5.22;;;;;;;8.87;77.38;100481.13;5060508;28;20453;-80
2021/01/19 08:31:53;;;;;;;10.85;4.80;;;;;;;8.84;77.70;100482.06;5053456;28;20468;-80
2021/01/19 08:34:20;;;;;;;10.50;5.50;;;;;;;9.00;76.99;100469.44;5054907;28;20029;-80
2021/01/19 08:36:47;;;;;;;9.63;5.57;;;;;;;9.04;76.52;100472.91;5053830;28;20029;-81
2021/01/19 08:39:16;;;;;;;9.20;5.35;;;;;;;9.25;76.50;100465.44;5059301;28;20496;-81
2021/01/19 08:41:46;;;;;;;13.35;6.03;;;;;;;9.02;76.89;100470.28;5053034;28;20033;-80
2021/01/19 08:44:13;;;;;;;6.57;5.10;;;;;;;8.98;77.40;100446.59;5069261;22;20071;-85
2021/01/19 08:46:40;;;;;;;7.65;5.63;;;;;;;9.02;76.88;100475.59;5050834;28;20514;-85
2021/01/19 08:49:11;;;;;;;8.88;5.28;;;;;;;9.09;77.09;100456.97;5045233;28;20025;-85
2021/01/19 08:51:42;;;;;;;8.55;5.25;;;;;;;9.29;76.86;100469.75;5050084;28;20037;-86
2021/01/19 08:54:09;;;;;;;6.22;4.47;;;;;;;9.10;77.55;100469.25;5044851;28;20017;-86
2021/01/19 08:56:41;;;;;;;7.93;4.45;;;;;;;9.20;76.96;100462.91;5057337;28;20029;-86
2021/01/19 08:59:10;;;;;;;5.45;4.78;;;;;;;9.32;76.80;100482.91;5042128;28;20033;-86
2021/01/19 09:01:48;;;;;;;7.03;5.53;;;;;;;9.37;76.39;100460.78;5052008;28;20029;-85
2021/01/19 09:04:28;;;;;;;9.18;4.60;;;;;;;9.35;76.75;100474.94;5066384;28;20033;-84
2021/01/19 09:07:05;;;;;;;6.85;5.40;;;;;;;9.35;77.38;100467.84;5045693;28;20017;-85
2021/01/19 09:09:32;;;;;;;6.85;5.05;;;;;;;9.34;76.80;100479.31;5033963;28;20045;-85
2021/01/19 09:11:58;;;;;;;10.38;5.10;;;;;;;9.48;76.57;100467.59;5031735;28;20798;-85
2021/01/19 09:14:26;;;;;;;7.70;4.90;;;;;;;9.41;77.36;100468.63;5043236;28;20068;-85
2021/01/19 09:16:53;;;;;;;5.90;5.13;;;;;;;9.47;76.97;100465.84;5040048;28;20037;-84
2021/01/19 09:19:20;;;;;;;9.35;5.05;;;;;;;9.44;77.27;100469.44;5045036;28;20029;-85
2021/01/19 09:21:47;;;;;;;7.57;4.57;;;;;;;9.53;77.73;100477.19;5036125;28;20120;-85
2021/01/19 09:24:16;;;;;;;9.50;3.85;;;;;;;9.67;77.57;100474.22;5028667;28;20380;-86
2021/01/19 09:26:59;;;;;;;7.90;4.03;;;;;;;9.76;77.77;100475.78;5025467;28;20543;-85
2021/01/19 09:29:27;;;;;;;44.10;23.25;;;;;;;9.81;78.00;100471.25;5040440;28;20037;-84
2021/01/19 09:31:56;;;;;;;14.93;7.70;;;;;;;9.98;77.79;100473.53;5032238;28;20380;-85
2021/01/19 09:34:25;;;;;;;6.80;4.50;;;;;;;9.95;78.00;100488.59;5029824;28;20058;-86
2021/01/19 09:36:51;;;;;;;10.45;4.57;;;;;;;10.27;77.41;100484.31;5026875;28;20357;-85
2021/01/19 09:39:33;;;;;;;7.57;4.50;;;;;;;10.37;77.18;100459.41;5022219;28;20041;-85
2021/01/19 09:42:01;;;;;;;10.10;4.60;;;;;;;10.14;78.73;100467.84;5026566;28;20481;-85
2021/01/19 09:44:29;;;;;;;9.40;4.63;;;;;;;10.39;78.57;100472.59;5026034;28;20129;-84
2021/01/19 09:47:03;;;;;;;15.50;4.60;;;;;;;10.66;77.77;100474.50;5043543;28;20057;-86
2021/01/19 09:49:30;;;;;;;15.40;5.20;;;;;;;10.81;77.35;100480.31;5031952;28;20045;-84
2021/01/19 09:52:06;;;;;;;10.80;3.75;;;;;;;10.73;78.25;100482.31;5035554;28;20029;-84
2021/01/19 09:54:32;;;;;;;13.57;3.58;;;;;;;10.92;77.58;100472.09;5032945;28;20032;-84
2021/01/19 09:56:59;;;;;;;17.33;4.15;;;;;;;11.03;77.61;100485.03;5029719;28;20030;-85
2021/01/19 09:59:27;;;;;;;18.38;4.82;;;;;;;10.99;77.69;100482.47;5047293;28;20024;-85
2021/01/19 10:01:55;;;;;;;15.40;3.97;;;;;;;11.03;78.05;100493.00;5045214;28;20265;-85
2021/01/19 10:04:21;;;;;;;33.28;5.28;;;;;;;11.15;77.54;100495.31;5038108;28;20021;-82
2021/01/19 10:06:47;;;;;;;11.55;4.07;;;;;;;11.30;76.59;100500.19;5036453;28;20029;-86
2021/01/19 10:09:22;;;;;;;20.15;5.60;;;;;;;11.09;77.73;100512.28;5033232;28;20026;-85
2021/01/19 10:12:00;;;;;;;20.75;4.35;;;;;;;11.12;77.48;100511.31;5036773;28;20041;-84
2021/01/19 10:14:36;;;;;;;18.67;3.70;;;;;;;11.23;77.20;100503.06;5046192;22;20097;-79
2021/01/19 10:17:03;;;;;;;16.58;4.40;;;;;;;11.23;77.81;100500.41;5032691;28;20074;-80
2021/01/19 10:19:31;;;;;;;19.45;4.40;;;;;;;11.09;77.64;100512.28;5040683;28;20021;-80
2021/01/19 10:22:03;;;;;;;20.10;5.90;;;;;;;10.97;78.43;100497.53;5035382;28;20025;-80
2021/01/19 10:24:30;;;;;;;21.35;3.95;;;;;;;11.13;78.09;100492.69;5034078;28;20032;-80
2021/01/19 10:27:12;;;;;;;16.88;4.22;;;;;;;11.46;76.75;100510.34;5035003;28;20025;-81
2021/01/19 10:29:40;;;;;;;16.48;3.92;;;;;;;11.38;77.17;100491.16;5033168;28;20061;-83
2021/01/19 10:32:11;;;;;;;20.75;4.20;;;;;;;11.26;77.13;100524.19;5032624;28;20021;-81
2021/01/19 10:34:42;;;;;;;17.90;3.72;;;;;;;11.35;77.39;100512.44;5030815;28;20501;-80
2021/01/19 10:37:10;;;;;;;17.00;3.65;;;;;;;11.42;76.95;100504.25;5033664;28;20041;-80
2021/01/19 10:39:46;;;;;;;18.88;5.82;;;;;;;11.55;76.57;100503.91;5033105;28;20024;-81
2021/01/19 10:42:25;;;;;;;21.50;5.53;;;;;;;11.46;76.61;100520.97;5032108;28;20108;-78
2021/01/19 10:44:58;;;;;;;17.73;3.80;;;;;;;11.47;76.60;100528.88;5032132;28;20022;-76
2021/01/19 10:47:26;;;;;;;10.77;3.65;;;;;;;11.27;77.86;100533.88;5033553;28;20029;-77
2021/01/19 10:49:52;;;;;;;18.00;3.30;;;;;;;11.32;77.62;100513.41;5037374;28;20107;-82
2021/01/19 10:52:18;;;;;;;16.08;3.30;;;;;;;11.27;77.57;100532.09;5035349;28;20156;-82
2021/01/19 10:54:45;;;;;;;13.77;3.30;;;;;;;11.29;77.88;100502.88;5035022;28;20033;-80
2021/01/19 10:57:11;;;;;;;14.18;4.10;;;;;;;11.38;77.31;100510.56;5041724;28;20033;-81
2021/01/19 10:59:37;;;;;;;12.93;3.38;;;;;;;11.56;76.55;100517.13;5034570;28;20119;-81
2021/01/19 11:02:05;;;;;;;15.57;5.57;;;;;;;11.43;77.55;100515.75;5033270;28;20071;-82
2021/01/19 11:04:32;;;;;;;13.13;3.40;;;;;;;11.44;77.16;100518.34;5034668;28;20037;-80
2021/01/19 11:07:01;;;;;;;17.75;3.50;;;;;;;11.43;77.42;100513.09;5033222;28;20028;-80
2021/01/19 11:09:27;;;;;;;20.65;4.13;;;;;;;11.51;77.05;100529.66;5032818;28;20022;-81
2021/01/19 11:11:53;;;;;;;21.15;4.68;;;;;;;11.48;77.04;100520.00;5033716;28;20104;-80
2021/01/19 11:14:20;;;;;;;19.13;3.28;;;;;;;11.39;77.79;100525.56;5033758;28;20033;-80
2021/01/19 11:16:46;;;;;;;17.23;3.05;;;;;;;11.53;77.22;100532.28;5034030;28;20038;-81
2021/01/19 11:19:14;;;;;;;13.30;3.30;;;;;;;11.37;77.06;100532.69;5033915;28;20388;-81
2021/01/19 11:21:42;;;;;;;14.23;3.38;;;;;;;11.37;77.83;100571.63;5033705;28;20492;-81
2021/01/19 11:24:10;;;;;;;13.85;4.43;;;;;;;11.30;77.92;100549.69;5033232;28;20120;-81
2021/01/19 11:26:39;;;;;;;15.27;3.15;;;;;;;11.31;78.13;100557.63;5034177;28;20036;-81
2021/01/19 11:29:07;;;;;;;17.45;3.90;;;;;;;11.26;78.13;100540.94;5033682;28;20032;-80
2021/01/19 11:31:34;;;;;;;26.25;4.18;;;;;;;11.48;77.34;100550.97;5033732;28;20099;-80
2021/01/19 11:34:04;;;;;;;19.55;4.30;;;;;;;11.44;77.21;100536.03;5033600;28;20025;-80
2021/01/19 11:36:33;;;;;;;18.50;4.03;;;;;;;11.54;77.03;100529.56;5034027;28;20079;-80
2021/01/19 11:39:00;;;;;;;29.98;4.78;;;;;;;11.53;76.72;100540.25;5033481;28;20048;-80
2021/01/19 11:41:27;;;;;;;17.48;5.00;;;;;;;11.44;77.39;100562.56;5033952;28;20029;-80
2021/01/19 11:43:54;;;;;;;15.30;4.35;;;;;;;11.45;77.12;100548.41;5033773;28;20484;-80
2021/01/19 11:46:24;;;;;;;19.30;3.83;;;;;;;11.56;76.88;100538.34;5033448;28;20082;-80
2021/01/19 11:48:51;;;;;;;28.90;4.95;;;;;;;11.54;76.86;100552.56;5033678;28;20567;-80
2021/01/19 11:51:19;;;;;;;15.27;3.17;;;;;;;11.62;76.33;100554.09;5033554;28;20038;-83
2021/01/19 11:53:47;;;;;;;32.97;4.80;;;;;;;11.52;76.62;100568.53;5033576;28;20041;-80
2021/01/19 11:56:14;;;;;;;60.30;23.92;;;;;;;11.57;76.51;100545.38;5033413;28;20026;-80
2021/01/19 11:58:41;;;;;;;19.52;3.97;;;;;;;11.62;75.79;100539.97;5033385;28;20030;-80
2021/01/19 12:01:08;;;;;;;23.10;3.17;;;;;;;11.51;76.07;100609.25;5033516;28;20029;-80
2021/01/19 12:03:34;;;;;;;21.92;3.80;;;;;;;11.49;76.49;100573.94;5033299;28;20037;-80
2021/01/19 12:06:00;;;;;;;18.92;3.47;;;;;;;11.62;75.99;100546.13;5032914;28;20036;-80
2021/01/19 12:08:28;;;;;;;19.77;3.40;;;;;;;11.81;75.15;100558.84;5032812;28;20048;-80
2021/01/19 12:10:54;;;;;;;20.42;5.22;;;;;;;11.84;74.61;100537.53;5032733;28;20048;-81
2021/01/19 12:13:20;;;;;;;25.23;3.78;;;;;;;11.48;75.67;100567.75;5033037;28;20091;-80
2021/01/19 12:15:46;;;;;;;22.13;4.97;;;;;;;11.63;75.35;100547.88;5029838;28;20469;-81
2021/01/19 12:18:12;;;;;;;20.73;4.57;;;;;;;11.89;74.23;100543.56;5013365;28;20066;-80
2021/01/19 12:20:38;;;;;;;27.33;4.45;;;;;;;11.66;74.69;100549.56;5018794;28;20087;-80
2021/01/19 12:23:05;;;;;;;19.83;3.97;;;;;;;11.73;74.34;100556.44;5031880;28;20060;-80